Time;durP1;ratioP1;P1;durP2;ratioP2;P2;SDS_P1;SDS_P2;PMS_P1;PMS_P2;Temp;Humidity;BMP_temperature;BMP_pressure;BME280_temperature;BME280_humidity;BME280_pressure;Samples;Min_cycle;Max_cycle;Signal;HPM_P1;HPM_P2
2021/08/28 00:02:44;;;;;;;17.20;6.93;;;;;;;;;;5013966;28;20104;-63
2021/08/28 00:05:29;;;;;;;17.67;7.68;;;;;;;;;;5013946;28;20062;-63
2021/08/28 00:08:14;;;;;;;17.10;7.78;;;;;;;;;;5011880;28;20503;-63
2021/08/28 00:11:00;;;;;;;14.73;7.00;;;;;;;;;;4994351;28;20129;-63
2021/08/28 00:13:45;;;;;;;15.55;7.15;;;;;;;;;;4995930;28;20054;-63
2021/08/28 00:16:30;;;;;;;14.25;6.85;;;;;;;;;;5013908;28;20058;-64
2021/08/28 00:19:16;;;;;;;18.75;7.70;;;;;;;;;;5011609;28;20081;-63
2021/08/28 00:22:01;;;;;;;17.80;5.90;;;;;;;;;;5013841;28;20049;-64
2021/08/28 00:24:47;;;;;;;15.68;7.60;;;;;;;;;;5013513;28;20046;-63
2021/08/28 00:27:33;;;;;;;14.20;6.00;;;;;;;;;;5013707;28;20054;-63
2021/08/28 00:30:19;;;;;;;20.30;7.28;;;;;;;;;;5011553;28;20128;-63
2021/08/28 00:33:14;;;;;;;16.67;6.78;;;;;;;;;;5013463;28;20129;-63
2021/08/28 00:35:59;;;;;;;17.13;6.75;;;;;;;;;;5013493;28;20129;-63
2021/08/28 00:38:44;;;;;;;18.70;6.72;;;;;;;;;;5013326;28;20512;-63
2021/08/28 00:41:29;;;;;;;12.73;5.35;;;;;;;;;;5011295;28;20050;-63
2021/08/28 00:44:14;;;;;;;16.75;5.80;;;;;;;;;;5011871;28;20050;-63
2021/08/28 00:47:00;;;;;;;13.65;5.95;;;;;;;;;;5013152;28;20568;-64
2021/08/28 00:49:46;;;;;;;17.90;6.03;;;;;;;;;;5010717;28;20046;-63
2021/08/28 00:52:32;;;;;;;20.80;6.47;;;;;;;;;;5013090;28;20081;-63
2021/08/28 00:55:17;;;;;;;11.07;5.43;;;;;;;;;;5012070;28;20125;-63
2021/08/28 00:58:02;;;;;;;13.93;5.75;;;;;;;;;;5012233;28;20120;-63
2021/08/28 01:00:49;;;;;;;16.77;5.85;;;;;;;;;;5011133;28;20411;-63
2021/08/28 01:03:35;;;;;;;14.18;6.88;;;;;;;;;;5011814;28;20053;-63
2021/08/28 01:06:22;;;;;;;20.20;7.07;;;;;;;;;;5012025;28;20049;-63
2021/08/28 01:09:34;;;;;;;13.20;6.70;;;;;;;;;;5000369;28;20053;-63
2021/08/28 01:12:39;;;;;;;14.30;7.22;;;;;;;;;;4992465;28;20321;-64
2021/08/28 01:15:29;;;;;;;15.88;7.80;;;;;;;;;;4992668;28;20050;-64
2021/08/28 01:18:15;;;;;;;19.17;7.57;;;;;;;;;;4992335;28;20058;-64
2021/08/28 01:21:20;;;;;;;16.70;7.28;;;;;;;;;;4992172;28;20050;-64
2021/08/28 01:24:32;;;;;;;14.93;6.75;;;;;;;;;;4987463;28;20088;-64
2021/08/28 01:27:49;;;;;;;15.57;6.82;;;;;;;;;;4994065;28;20050;-64
2021/08/28 01:30:36;;;;;;;13.45;7.03;;;;;;;;;;4978436;28;20054;-64
2021/08/28 01:33:21;;;;;;;11.00;6.68;;;;;;;;;;4978269;28;20062;-64
2021/08/28 01:36:07;;;;;;;12.82;6.75;;;;;;;;;;4991811;28;20090;-64
2021/08/28 01:39:19;;;;;;;11.88;7.20;;;;;;;;;;4986783;28;20054;-64
2021/08/28 01:42:05;;;;;;;14.18;7.10;;;;;;;;;;4991796;28;20050;-64
2021/08/28 01:44:52;;;;;;;15.20;7.65;;;;;;;;;;4991464;28;20054;-64
2021/08/28 01:47:37;;;;;;;17.73;7.20;;;;;;;;;;4991621;28;20513;-64
2021/08/28 01:50:24;;;;;;;15.85;7.63;;;;;;;;;;4991938;28;20058;-64
2021/08/28 01:53:12;;;;;;;11.40;7.18;;;;;;;;;;4991523;28;20516;-64
2021/08/28 01:55:58;;;;;;;15.75;7.20;;;;;;;;;;4998752;28;20054;-64
2021/08/28 01:58:44;;;;;;;16.27;8.52;;;;;;;;;;5005054;28;20058;-64
2021/08/28 02:01:42;;;;;;;15.73;7.47;;;;;;;;;;4992407;28;20054;-64
2021/08/28 02:04:27;;;;;;;14.48;6.82;;;;;;;;;;5005043;28;20453;-64
2021/08/28 02:07:16;;;;;;;17.13;7.72;;;;;;;;;;5005395;28;20509;-64
2021/08/28 02:10:06;;;;;;;14.13;8.75;;;;;;;;;;5002708;28;20042;-64
2021/08/28 02:12:56;;;;;;;14.50;7.70;;;;;;;;;;4991141;28;20054;-64
2021/08/28 02:15:43;;;;;;;14.95;7.63;;;;;;;;;;4991294;28;20051;-64
2021/08/28 02:18:31;;;;;;;14.82;8.50;;;;;;;;;;5005517;28;20050;-64
2021/08/28 02:21:28;;;;;;;14.48;7.35;;;;;;;;;;5005298;28;20046;-64
2021/08/28 02:24:16;;;;;;;14.23;6.22;;;;;;;;;;5009071;28;20046;-63
2021/08/28 02:27:06;;;;;;;9.40;5.50;;;;;;;;;;4997952;28;20054;-64
2021/08/28 02:30:02;;;;;;;12.98;5.97;;;;;;;;;;5025027;28;20049;-64
2021/08/28 02:32:54;;;;;;;13.73;6.10;;;;;;;;;;5026037;23;20046;-64
2021/08/28 02:35:40;;;;;;;12.85;6.50;;;;;;;;;;5016727;28;20069;-64
2021/08/28 02:38:25;;;;;;;7.70;5.85;;;;;;;;;;5029921;28;20053;-64
2021/08/28 02:41:11;;;;;;;11.27;5.88;;;;;;;;;;5030113;28;20049;-65
2021/08/28 02:43:57;;;;;;;9.60;5.65;;;;;;;;;;5016766;28;20053;-64
2021/08/28 02:46:44;;;;;;;10.60;6.47;;;;;;;;;;5017033;28;20504;-65
2021/08/28 02:49:32;;;;;;;10.48;5.57;;;;;;;;;;5010360;28;20042;-65
2021/08/28 02:52:17;;;;;;;11.65;5.68;;;;;;;;;;5010955;28;20053;-64
2021/08/28 02:55:03;;;;;;;12.10;6.30;;;;;;;;;;4997035;28;20058;-64
2021/08/28 02:57:49;;;;;;;11.18;6.00;;;;;;;;;;5011669;28;20402;-63
2021/08/28 03:00:35;;;;;;;8.00;5.90;;;;;;;;;;5019889;28;20050;-64
2021/08/28 03:03:20;;;;;;;10.30;6.10;;;;;;;;;;5029685;28;20388;-65
2021/08/28 03:06:06;;;;;;;9.30;5.60;;;;;;;;;;5030276;28;20411;-64
2021/08/28 03:08:55;;;;;;;11.45;6.25;;;;;;;;;;5018787;28;20650;-63
2021/08/28 03:11:41;;;;;;;13.48;6.57;;;;;;;;;;5030783;28;20400;-64
2021/08/28 03:14:26;;;;;;;12.65;6.22;;;;;;;;;;5033446;28;20124;-64
2021/08/28 03:17:12;;;;;;;12.57;6.80;;;;;;;;;;5033710;28;20525;-64
2021/08/28 03:20:00;;;;;;;13.55;6.30;;;;;;;;;;5018213;28;20207;-64
2021/08/28 03:22:45;;;;;;;9.88;5.63;;;;;;;;;;5033540;28;20116;-64
2021/08/28 03:25:31;;;;;;;15.40;6.03;;;;;;;;;;5033315;28;20553;-64
2021/08/28 03:28:17;;;;;;;11.52;5.60;;;;;;;;;;5033808;28;20415;-65
2021/08/28 03:31:02;;;;;;;10.38;6.40;;;;;;;;;;5030812;28;20192;-64
2021/08/28 03:33:48;;;;;;;14.82;7.18;;;;;;;;;;5018680;28;20087;-64
2021/08/28 03:36:33;;;;;;;15.23;6.68;;;;;;;;;;5033519;28;20045;-64
2021/08/28 03:39:19;;;;;;;8.10;5.43;;;;;;;;;;5019547;28;20049;-64
2021/08/28 03:42:04;;;;;;;12.43;6.22;;;;;;;;;;5021934;28;20397;-65
2021/08/28 03:44:49;;;;;;;11.38;6.55;;;;;;;;;;5027102;28;20515;-64
2021/08/28 03:47:38;;;;;;;15.80;7.03;;;;;;;;;;5027384;28;20052;-65
2021/08/28 03:50:25;;;;;;;10.48;6.30;;;;;;;;;;5013573;28;20045;-64
2021/08/28 03:53:17;;;;;;;16.15;6.40;;;;;;;;;;5043792;28;20049;-65
2021/08/28 03:56:03;;;;;;;10.80;6.05;;;;;;;;;;5032821;28;20054;-65
2021/08/28 03:58:48;;;;;;;13.38;6.22;;;;;;;;;;5032905;28;20045;-63
2021/08/28 04:01:34;;;;;;;17.63;6.85;;;;;;;;;;5030693;28;20053;-63
2021/08/28 04:04:21;;;;;;;10.45;6.13;;;;;;;;;;5011834;28;20050;-63
2021/08/28 04:07:08;;;;;;;11.85;6.47;;;;;;;;;;5013179;28;20339;-63
2021/08/28 04:09:54;;;;;;;13.40;7.40;;;;;;;;;;5012696;28;20441;-63
2021/08/28 04:12:39;;;;;;;12.02;7.32;;;;;;;;;;5016847;28;20045;-63
2021/08/28 04:15:25;;;;;;;13.13;7.35;;;;;;;;;;5032618;28;20084;-63
2021/08/28 04:18:35;;;;;;;14.40;6.75;;;;;;;;;;5032600;28;20057;-64
2021/08/28 04:21:38;;;;;;;15.82;7.75;;;;;;;;;;5032088;28;20388;-63
2021/08/28 04:24:24;;;;;;;15.77;7.97;;;;;;;;;;5025824;28;20046;-63
2021/08/28 04:27:32;;;;;;;13.40;6.55;;;;;;;;;;5013638;28;20054;-63
2021/08/28 04:30:19;;;;;;;14.25;6.65;;;;;;;;;;5012574;28;20050;-63
2021/08/28 04:33:05;;;;;;;13.88;7.25;;;;;;;;;;5012279;28;20050;-63
2021/08/28 04:35:52;;;;;;;14.85;7.43;;;;;;;;;;5012307;28;20054;-63
2021/08/28 04:38:38;;;;;;;11.85;6.65;;;;;;;;;;5012563;28;20397;-63
2021/08/28 04:41:23;;;;;;;12.88;6.57;;;;;;;;;;5012436;28;20050;-63
2021/08/28 04:44:09;;;;;;;12.90;6.63;;;;;;;;;;5011267;28;20046;-63
2021/08/28 04:47:02;;;;;;;13.65;7.03;;;;;;;;;;5012271;28;20046;-63
2021/08/28 04:49:48;;;;;;;12.57;6.50;;;;;;;;;;5026322;28;20085;-63
2021/08/28 04:52:43;;;;;;;17.13;6.55;;;;;;;;;;5013349;28;20058;-63
2021/08/28 04:55:29;;;;;;;15.07;7.60;;;;;;;;;;5013446;28;20053;-63
2021/08/28 04:58:15;;;;;;;12.18;7.43;;;;;;;;;;5013185;28;20053;-63
2021/08/28 05:01:20;;;;;;;14.77;7.28;;;;;;;;;;5013100;28;20046;-63
2021/08/28 05:04:34;;;;;;;12.18;6.93;;;;;;;;;;5011706;28;20088;-63
2021/08/28 05:07:20;;;;;;;11.90;6.45;;;;;;;;;;5012180;28;20050;-63
2021/08/28 05:10:18;;;;;;;10.98;6.20;;;;;;;;;;5014340;28;20092;-63
2021/08/28 05:13:03;;;;;;;14.27;6.80;;;;;;;;;;5025811;28;20124;-63
2021/08/28 05:15:57;;;;;;;13.68;7.45;;;;;;;;;;5025120;28;20057;-63
2021/08/28 05:18:43;;;;;;;16.13;7.35;;;;;;;;;;5025577;28;20054;-63
2021/08/28 05:21:31;;;;;;;17.65;7.28;;;;;;;;;;5011657;28;20058;-63
2021/08/28 05:24:41;;;;;;;11.90;5.90;;;;;;;;;;5011543;28;20050;-63
2021/08/28 05:27:26;;;;;;;15.85;7.32;;;;;;;;;;5011704;28;20385;-63
2021/08/28 05:30:11;;;;;;;12.00;6.85;;;;;;;;;;5012567;28;20050;-63
2021/08/28 05:32:56;;;;;;;15.75;5.82;;;;;;;;;;5011083;28;20406;-63
2021/08/28 05:35:42;;;;;;;11.05;6.18;;;;;;;;;;5011355;28;20050;-63
2021/08/28 05:38:45;;;;;;;11.82;5.75;;;;;;;;;;5011659;28;20053;-63
2021/08/28 05:41:30;;;;;;;16.13;6.13;;;;;;;;;;5012077;28;20121;-63
2021/08/28 05:44:16;;;;;;;12.80;6.13;;;;;;;;;;5011158;28;20046;-63
2021/08/28 05:47:01;;;;;;;11.75;5.75;;;;;;;;;;5011437;28;20054;-63
2021/08/28 05:49:47;;;;;;;13.73;5.78;;;;;;;;;;5011732;28;20161;-63
2021/08/28 05:52:38;;;;;;;12.35;6.05;;;;;;;;;;5011276;28;20054;-63
2021/08/28 05:55:23;;;;;;;13.57;5.43;;;;;;;;;;5012254;28;20058;-63
2021/08/28 05:58:08;;;;;;;11.18;5.65;;;;;;;;;;5011398;28;20412;-63
2021/08/28 06:00:54;;;;;;;14.32;6.22;;;;;;;;;;5015949;28;20055;-63
2021/08/28 06:03:39;;;;;;;15.95;6.85;;;;;;;;;;5019641;28;20042;-63
2021/08/28 06:06:34;;;;;;;12.93;5.70;;;;;;;;;;5023259;28;20050;-63
2021/08/28 06:09:39;;;;;;;13.57;6.80;;;;;;;;;;5022332;28;20112;-63
2021/08/28 06:12:50;;;;;;;17.25;6.32;;;;;;;;;;5021565;28;20058;-64
2021/08/28 06:15:53;;;;;;;18.02;6.40;;;;;;;;;;5034609;28;20413;-65
2021/08/28 06:18:38;;;;;;;13.95;5.93;;;;;;;;;;5030771;28;20125;-65
2021/08/28 06:21:23;;;;;;;12.75;5.82;;;;;;;;;;5023020;28;20046;-65
2021/08/28 06:24:08;;;;;;;10.35;6.00;;;;;;;;;;5011376;28;20053;-66
2021/08/28 06:27:26;;;;;;;11.20;5.75;;;;;;;;;;5019287;28;20093;-65
2021/08/28 06:30:11;;;;;;;11.90;5.78;;;;;;;;;;5009373;28;20049;-65
2021/08/28 06:32:57;;;;;;;12.30;5.13;;;;;;;;;;5011559;28;20405;-66
2021/08/28 06:35:42;;;;;;;10.93;5.53;;;;;;;;;;5024593;28;20050;-65
2021/08/28 06:38:47;;;;;;;13.27;5.70;;;;;;;;;;5011875;28;20046;-66
2021/08/28 06:41:48;;;;;;;10.82;5.45;;;;;;;;;;5010622;28;20507;-65
2021/08/28 06:44:52;;;;;;;10.45;4.97;;;;;;;;;;5014178;28;20054;-65
2021/08/28 06:47:56;;;;;;;8.55;5.75;;;;;;;;;;5015127;28;20046;-66
2021/08/28 06:51:00;;;;;;;14.70;6.75;;;;;;;;;;5016455;28;20050;-66
2021/08/28 06:54:15;;;;;;;10.93;5.50;;;;;;;;;;4998465;28;20504;-66
2021/08/28 06:57:27;;;;;;;10.85;5.22;;;;;;;;;;5009642;28;20078;-65
2021/08/28 07:00:39;;;;;;;9.45;4.60;;;;;;;;;;5015401;28;20050;-65
2021/08/28 07:03:45;;;;;;;12.38;6.43;;;;;;;;;;5014438;28;20053;-66
2021/08/28 07:06:36;;;;;;;9.23;5.00;;;;;;;;;;5014433;28;20054;-66
2021/08/28 07:09:21;;;;;;;10.40;5.32;;;;;;;;;;5023313;28;20050;-66
2021/08/28 07:12:06;;;;;;;9.98;4.72;;;;;;;;;;5037247;28;20050;-66
2021/08/28 07:14:52;;;;;;;10.90;5.65;;;;;;;;;;5013120;28;20050;-66
2021/08/28 07:17:56;;;;;;;8.40;4.53;;;;;;;;;;5015023;28;20120;-66
2021/08/28 07:20:41;;;;;;;8.65;5.40;;;;;;;;;;5013758;28;20050;-66
2021/08/28 07:23:26;;;;;;;7.22;4.07;;;;;;;;;;5013632;28;20046;-65
2021/08/28 07:26:19;;;;;;;8.15;4.28;;;;;;;;;;5040052;28;20053;-65
2021/08/28 07:29:12;;;;;;;8.93;4.30;;;;;;;;;;5027866;28;20050;-66
2021/08/28 07:32:00;;;;;;;9.45;4.25;;;;;;;;;;5013073;28;20050;-66
2021/08/28 07:34:46;;;;;;;6.72;4.18;;;;;;;;;;5026967;28;20084;-66
2021/08/28 07:37:31;;;;;;;5.88;4.40;;;;;;;;;;5014799;28;20397;-66
2021/08/28 07:40:16;;;;;;;10.27;4.10;;;;;;;;;;5027645;28;20075;-66
2021/08/28 07:43:02;;;;;;;6.32;4.00;;;;;;;;;;5013539;28;20049;-66
2021/08/28 07:45:53;;;;;;;7.70;4.95;;;;;;;;;;5013304;28;20053;-66
2021/08/28 07:48:43;;;;;;;7.55;4.20;;;;;;;;;;5027384;28;20046;-66
2021/08/28 07:51:28;;;;;;;7.50;3.47;;;;;;;;;;5027288;28;20062;-66
2021/08/28 07:54:13;;;;;;;7.35;3.67;;;;;;;;;;5035470;28;20049;-66
2021/08/28 07:57:00;;;;;;;7.22;3.50;;;;;;;;;;5013155;28;20496;-65
2021/08/28 07:59:45;;;;;;;6.45;3.60;;;;;;;;;;5013097;28;20505;-66
2021/08/28 08:02:31;;;;;;;4.68;3.55;;;;;;;;;;5028521;28;20038;-65
2021/08/28 08:05:16;;;;;;;8.43;3.42;;;;;;;;;;5026814;28;20049;-66
2021/08/28 08:08:34;;;;;;;3.53;2.42;;;;;;;;;;5041150;28;20049;-65
2021/08/28 08:11:38;;;;;;;5.32;3.45;;;;;;;;;;5033867;28;20057;-66
2021/08/28 08:14:35;;;;;;;6.90;2.88;;;;;;;;;;5030488;28;20088;-67
2021/08/28 08:17:40;;;;;;;5.57;2.80;;;;;;;;;;5033700;28;20049;-65
2021/08/28 08:20:34;;;;;;;3.47;2.42;;;;;;;;;;5031647;28;20128;-66
2021/08/28 08:23:42;;;;;;;4.50;2.60;;;;;;;;;;5024307;28;20046;-65
2021/08/28 08:26:46;;;;;;;3.60;2.90;;;;;;;;;;5013762;28;20054;-65
2021/08/28 08:29:50;;;;;;;6.57;2.58;;;;;;;;;;5013806;28;20050;-65
2021/08/28 08:32:43;;;;;;;4.00;2.55;;;;;;;;;;5012534;28;20116;-66
2021/08/28 08:35:28;;;;;;;4.20;2.03;;;;;;;;;;5024298;28;20054;-66
2021/08/28 08:38:14;;;;;;;3.67;2.20;;;;;;;;;;5013532;28;20504;-65
2021/08/28 08:40:59;;;;;;;5.55;2.60;;;;;;;;;;5026497;28;20393;-66
2021/08/28 08:43:44;;;;;;;6.68;2.90;;;;;;;;;;5011417;28;20054;-65
2021/08/28 08:46:29;;;;;;;12.00;3.85;;;;;;;;;;5014031;28;20046;-74
2021/08/28 08:49:16;;;;;;;6.90;2.60;;;;;;;;;;4997987;28;20058;-74
2021/08/28 08:52:01;;;;;;;6.40;2.72;;;;;;;;;;4997697;28;20058;-74
2021/08/28 08:54:57;;;;;;;6.68;2.50;;;;;;;;;;5004638;28;20053;-74
2021/08/28 08:57:43;;;;;;;6.32;2.58;;;;;;;;;;5002664;28;20053;-73
2021/08/28 09:00:28;;;;;;;6.22;2.75;;;;;;;;;;5018027;28;20057;-73
2021/08/28 09:03:33;;;;;;;3.65;2.40;;;;;;;;;;5020087;28;20057;-73
2021/08/28 09:06:22;;;;;;;6.38;2.33;;;;;;;;;;4999086;28;20060;-74
2021/08/28 09:09:07;;;;;;;4.43;2.47;;;;;;;;;;4997643;28;20082;-74
2021/08/28 09:11:58;;;;;;;2.80;1.77;;;;;;;;;;5011623;28;20054;-73
2021/08/28 09:14:44;;;;;;;5.45;2.00;;;;;;;;;;5010806;28;20058;-74
2021/08/28 09:17:29;;;;;;;2.85;1.42;;;;;;;;;;5025702;28;20409;-74
2021/08/28 09:20:21;;;;;;;2.33;1.70;;;;;;;;;;5011502;28;20057;-73
2021/08/28 09:23:10;;;;;;;1.33;1.00;;;;;;;;;;5011263;28;20050;-74
2021/08/28 09:25:55;;;;;;;3.92;1.25;;;;;;;;;;5010524;28;20394;-74
2021/08/28 09:28:40;;;;;;;3.05;1.40;;;;;;;;;;5011222;28;20517;-73
2021/08/28 09:31:40;;;;;;;2.83;1.17;;;;;;;;;;5012467;28;20042;-73
2021/08/28 09:34:25;;;;;;;4.13;1.58;;;;;;;;;;5010847;28;20057;-73
2021/08/28 09:37:11;;;;;;;2.83;1.30;;;;;;;;;;5036970;28;20050;-73
2021/08/28 09:39:58;;;;;;;2.90;1.15;;;;;;;;;;5032002;28;20129;-73
2021/08/28 09:42:43;;;;;;;2.97;1.42;;;;;;;;;;5016783;28;20057;-73
2021/08/28 09:45:28;;;;;;;1.60;1.20;;;;;;;;;;5030901;28;20062;-73
2021/08/28 09:48:14;;;;;;;4.65;1.60;;;;;;;;;;5015049;28;20057;-73
2021/08/28 09:51:00;;;;;;;2.95;1.00;;;;;;;;;;5032139;28;20069;-73
2021/08/28 09:53:46;;;;;;;2.60;1.15;;;;;;;;;;5016907;28;20397;-73
2021/08/28 09:56:31;;;;;;;2.78;1.30;;;;;;;;;;5027162;28;20499;-72
2021/08/28 09:59:23;;;;;;;3.72;1.35;;;;;;;;;;5011304;28;20049;-73
2021/08/28 10:02:10;;;;;;;3.55;1.70;;;;;;;;;;4997611;28;20132;-74
2021/08/28 10:04:56;;;;;;;4.88;1.35;;;;;;;;;;5011184;28;20042;-73
2021/08/28 10:07:41;;;;;;;7.80;2.03;;;;;;;;;;4998146;28;20045;-73
2021/08/28 10:10:27;;;;;;;2.83;1.20;;;;;;;;;;4996915;28;20125;-74
2021/08/28 10:13:12;;;;;;;4.75;1.50;;;;;;;;;;5011413;28;20050;-74
2021/08/28 10:15:57;;;;;;;4.55;1.17;;;;;;;;;;5012486;28;20054;-73
2021/08/28 10:18:45;;;;;;;2.45;1.25;;;;;;;;;;5023496;28;20500;-73
2021/08/28 10:21:31;;;;;;;2.85;1.27;;;;;;;;;;5034922;28;20058;-74
2021/08/28 10:24:16;;;;;;;3.05;1.80;;;;;;;;;;5035077;28;20393;-74
2021/08/28 10:27:01;;;;;;;3.65;1.50;;;;;;;;;;5035222;28;20053;-73
2021/08/28 10:29:47;;;;;;;2.17;1.13;;;;;;;;;;5019660;28;20069;-73
2021/08/28 10:32:32;;;;;;;3.78;1.25;;;;;;;;;;5035286;28;20084;-73
2021/08/28 10:35:17;;;;;;;5.82;1.27;;;;;;;;;;5034349;28;20053;-74
2021/08/28 10:38:03;;;;;;;2.78;0.98;;;;;;;;;;5031828;28;20054;-74
2021/08/28 10:40:50;;;;;;;3.08;1.10;;;;;;;;;;5024095;28;20149;-74
2021/08/28 10:43:35;;;;;;;6.93;1.80;;;;;;;;;;5033833;28;20049;-74
2021/08/28 10:46:21;;;;;;;3.83;0.90;;;;;;;;;;5002211;28;20053;-73
2021/08/28 10:49:27;;;;;;;2.30;0.90;;;;;;;;;;5009563;28;20500;-75
2021/08/28 10:52:17;;;;;;;5.75;1.23;;;;;;;;;;5000920;28;20050;-74
2021/08/28 10:55:07;;;;;;;2.78;1.13;;;;;;;;;;5000391;28;20061;-75
2021/08/28 10:58:10;;;;;;;2.75;1.45;;;;;;;;;;4999962;28;20054;-74
2021/08/28 11:00:55;;;;;;;1.58;0.63;;;;;;;;;;5019067;28;20508;-75
2021/08/28 11:03:41;;;;;;;1.38;0.60;;;;;;;;;;5033597;28;20057;-76
2021/08/28 11:06:27;;;;;;;2.28;0.95;;;;;;;;;;5018066;28;20049;-75
2021/08/28 11:09:15;;;;;;;4.40;1.40;;;;;;;;;;5020450;28;20472;-75
2021/08/28 11:12:00;;;;;;;4.00;0.82;;;;;;;;;;5034030;28;20057;-75
2021/08/28 11:14:46;;;;;;;5.05;2.20;;;;;;;;;;5019469;28;20050;-75
2021/08/28 11:17:37;;;;;;;6.90;2.05;;;;;;;;;;5018402;28;20496;-74
2021/08/28 11:20:23;;;;;;;3.53;1.47;;;;;;;;;;5019569;28;20057;-69
2021/08/28 11:23:11;;;;;;;3.53;1.50;;;;;;;;;;5033596;28;20053;-73
2021/08/28 11:25:58;;;;;;;2.95;1.13;;;;;;;;;;5033605;28;20041;-73
2021/08/28 11:28:43;;;;;;;3.28;1.20;;;;;;;;;;5015488;28;20049;-73
2021/08/28 11:31:42;;;;;;;3.88;1.17;;;;;;;;;;5033238;28;20551;-74
2021/08/28 11:34:30;;;;;;;5.45;1.10;;;;;;;;;;5019234;28;20057;-73
2021/08/28 11:37:41;;;;;;;4.32;1.00;;;;;;;;;;5026783;28;20093;-73
2021/08/28 11:40:27;;;;;;;3.40;1.00;;;;;;;;;;5014497;28;20129;-72
2021/08/28 11:43:13;;;;;;;3.10;1.10;;;;;;;;;;5019388;28;20058;-72
2021/08/28 11:46:01;;;;;;;3.90;1.33;;;;;;;;;;5019953;28;20555;-72
2021/08/28 11:48:47;;;;;;;4.97;1.30;;;;;;;;;;5013135;28;20082;-72
2021/08/28 11:51:33;;;;;;;3.15;1.30;;;;;;;;;;5000669;28;20046;-72
2021/08/28 11:54:19;;;;;;;3.25;0.95;;;;;;;;;;5012617;28;20089;-73
2021/08/28 11:57:04;;;;;;;3.45;1.08;;;;;;;;;;5011133;28;20079;-73
2021/08/28 11:59:49;;;;;;;4.20;1.23;;;;;;;;;;5012295;28;20057;-73
2021/08/28 12:02:34;;;;;;;4.18;1.02;;;;;;;;;;5014200;28;20046;-73
2021/08/28 12:05:20;;;;;;;2.15;0.68;;;;;;;;;;5012655;28;20053;-73
2021/08/28 12:08:05;;;;;;;2.92;0.75;;;;;;;;;;5031963;28;20058;-72
2021/08/28 12:10:51;;;;;;;4.80;0.65;;;;;;;;;;5032421;28;20057;-72
2021/08/28 12:13:48;;;;;;;1.80;1.10;;;;;;;;;;5032240;28;20559;-72
2021/08/28 12:16:34;;;;;;;2.65;1.00;;;;;;;;;;5028162;28;20057;-72
2021/08/28 12:19:26;;;;;;;2.40;0.93;;;;;;;;;;5012877;28;20066;-72
2021/08/28 12:22:11;;;;;;;2.00;0.95;;;;;;;;;;5014302;28;20053;-72
2021/08/28 12:24:56;;;;;;;5.88;0.93;;;;;;;;;;5012584;28;20054;-72
2021/08/28 12:27:44;;;;;;;5.20;1.02;;;;;;;;;;5021635;28;20096;-72
2021/08/28 12:30:29;;;;;;;4.40;1.00;;;;;;;;;;5032525;28;20058;-72
2021/08/28 12:33:14;;;;;;;2.28;0.77;;;;;;;;;;5032089;28;20057;-72
2021/08/28 12:36:00;;;;;;;1.42;0.77;;;;;;;;;;5033358;28;20054;-72
2021/08/28 12:38:44;;;;;;;2.45;0.75;;;;;;;;;;5030917;28;20045;-72
2021/08/28 12:41:29;;;;;;;1.60;0.80;;;;;;;;;;5032655;28;20049;-72
2021/08/28 12:44:16;;;;;;;3.65;1.25;;;;;;;;;;5031560;28;20053;-72
2021/08/28 12:47:01;;;;;;;7.07;1.08;;;;;;;;;;5031854;28;20515;-72
2021/08/28 12:49:47;;;;;;;2.90;1.23;;;;;;;;;;4996921;28;20062;-72
2021/08/28 12:52:50;;;;;;;2.60;0.70;;;;;;;;;;5013233;28;20050;-72
2021/08/28 12:55:35;;;;;;;2.05;0.73;;;;;;;;;;5012878;28;20049;-72
2021/08/28 12:58:20;;;;;;;2.22;1.08;;;;;;;;;;5012690;28;20125;-72
2021/08/28 13:01:05;;;;;;;5.10;1.17;;;;;;;;;;5010530;28;20046;-72
2021/08/28 13:03:50;;;;;;;2.72;1.00;;;;;;;;;;5015952;28;20125;-72
2021/08/28 13:06:35;;;;;;;2.78;1.05;;;;;;;;;;5021464;28;20508;-72
2021/08/28 13:09:21;;;;;;;2.60;0.82;;;;;;;;;;5029465;28;20120;-72
2021/08/28 13:12:07;;;;;;;2.05;1.33;;;;;;;;;;5018493;28;20054;-72
2021/08/28 13:14:55;;;;;;;3.65;1.05;;;;;;;;;;5012192;28;20058;-72
2021/08/28 13:17:41;;;;;;;3.03;1.27;;;;;;;;;;4998170;28;20053;-72
2021/08/28 13:20:26;;;;;;;3.40;1.00;;;;;;;;;;5011348;28;20489;-72
2021/08/28 13:23:14;;;;;;;2.25;1.38;;;;;;;;;;5011330;28;20085;-72
2021/08/28 13:26:01;;;;;;;3.40;1.17;;;;;;;;;;5011653;28;20115;-72
2021/08/28 13:28:46;;;;;;;2.05;0.90;;;;;;;;;;5010953;28;20049;-72
2021/08/28 13:31:31;;;;;;;2.42;1.20;;;;;;;;;;5012138;28;20053;-72
2021/08/28 13:34:17;;;;;;;3.90;1.38;;;;;;;;;;5012101;28;20129;-72
2021/08/28 13:37:02;;;;;;;1.90;1.10;;;;;;;;;;5011553;28;20065;-72
2021/08/28 13:39:48;;;;;;;3.08;1.10;;;;;;;;;;4997424;28;20054;-72
2021/08/28 13:42:33;;;;;;;2.63;1.20;;;;;;;;;;5010358;28;20058;-72
2021/08/28 13:45:18;;;;;;;5.18;1.90;;;;;;;;;;5010801;28;20058;-73
2021/08/28 13:48:03;;;;;;;3.33;1.17;;;;;;;;;;4997654;28;20057;-72
2021/08/28 13:50:49;;;;;;;4.32;1.30;;;;;;;;;;5019480;28;20057;-72
2021/08/28 13:53:34;;;;;;;3.83;0.93;;;;;;;;;;5021746;28;20053;-72
2021/08/28 13:56:19;;;;;;;2.88;1.00;;;;;;;;;;5022816;28;20116;-71
2021/08/28 13:59:04;;;;;;;2.92;0.95;;;;;;;;;;5021613;28;20046;-72
2021/08/28 14:01:49;;;;;;;3.42;0.77;;;;;;;;;;5017723;28;20128;-71
2021/08/28 14:04:34;;;;;;;2.05;1.05;;;;;;;;;;5015518;28;20046;-72
2021/08/28 14:07:19;;;;;;;3.28;1.05;;;;;;;;;;5009487;28;20058;-72
2021/08/28 14:10:05;;;;;;;1.58;0.80;;;;;;;;;;5009118;28;20049;-72
2021/08/28 14:12:50;;;;;;;2.60;0.75;;;;;;;;;;5027932;28;20053;-72
2021/08/28 14:15:35;;;;;;;3.33;1.58;;;;;;;;;;5016063;28;20057;-74
2021/08/28 14:18:20;;;;;;;2.28;1.27;;;;;;;;;;5023600;28;20049;-71
2021/08/28 14:21:05;;;;;;;1.90;0.88;;;;;;;;;;5019303;28;20053;-72
2021/08/28 14:23:51;;;;;;;5.22;1.55;;;;;;;;;;5017842;28;20050;-72
2021/08/28 14:26:37;;;;;;;5.53;1.38;;;;;;;;;;5022617;28;20049;-73
2021/08/28 14:29:22;;;;;;;2.25;0.90;;;;;;;;;;5029944;28;20050;-74
2021/08/28 14:32:07;;;;;;;4.00;1.00;;;;;;;;;;5020248;28;20121;-73
2021/08/28 14:34:52;;;;;;;3.40;1.10;;;;;;;;;;5063690;23;20099;-72
2021/08/28 14:37:38;;;;;;;4.25;1.20;;;;;;;;;;5050227;28;20053;-72
2021/08/28 14:40:23;;;;;;;5.10;1.23;;;;;;;;;;5050538;28;20120;-72
2021/08/28 14:43:10;;;;;;;5.20;2.03;;;;;;;;;;5049257;28;20049;-73
2021/08/28 14:45:55;;;;;;;2.50;1.02;;;;;;;;;;5034434;28;20048;-72
2021/08/28 14:48:41;;;;;;;2.92;1.05;;;;;;;;;;5050457;28;20127;-73
2021/08/28 14:51:26;;;;;;;3.58;1.45;;;;;;;;;;5036224;28;20534;-73
2021/08/28 14:54:12;;;;;;;3.60;1.35;;;;;;;;;;5035255;28;20056;-75
2021/08/28 14:57:19;;;;;;;3.40;1.20;;;;;;;;;;5130577;27;20354;-74
2021/08/28 15:00:05;;;;;;;5.05;1.80;;;;;;;;;;5127271;28;20130;-74
2021/08/28 15:02:50;;;;;;;3.85;1.27;;;;;;;;;;5108462;28;20055;-74
2021/08/28 15:05:35;;;;;;;5.55;1.67;;;;;;;;;;5137349;27;20036;-74
2021/08/28 15:08:20;;;;;;;3.85;1.48;;;;;;;;;;5107102;28;20644;-73
2021/08/28 15:11:05;;;;;;;5.53;2.10;;;;;;;;;;5105764;28;20123;-74
2021/08/28 15:13:50;;;;;;;8.50;1.65;;;;;;;;;;5104324;28;20047;-74
2021/08/28 15:16:36;;;;;;;5.88;1.50;;;;;;;;;;5115761;28;20052;-74
2021/08/28 15:19:21;;;;;;;7.55;1.40;;;;;;;;;;5122264;28;20057;-74
2021/08/28 15:22:06;;;;;;;4.55;2.65;;;;;;;;;;5133014;27;20056;-74
2021/08/28 15:24:51;;;;;;;3.55;1.08;;;;;;;;;;5109134;28;20446;-74
2021/08/28 15:27:36;;;;;;;5.50;1.90;;;;;;;;;;5108071;28;20060;-74
2021/08/28 15:30:22;;;;;;;4.40;1.80;;;;;;;;;;5108016;28;20059;-74
2021/08/28 15:33:07;;;;;;;4.05;1.23;;;;;;;;;;5092221;28;20391;-74
2021/08/28 15:35:53;;;;;;;3.45;1.20;;;;;;;;;;5108014;28;20541;-74
2021/08/28 15:38:38;;;;;;;5.93;1.25;;;;;;;;;;5107806;28;20051;-74
2021/08/28 15:41:23;;;;;;;3.50;1.38;;;;;;;;;;5107213;28;20048;-73
2021/08/28 15:44:08;;;;;;;3.58;1.30;;;;;;;;;;5087475;28;20056;-74
2021/08/28 15:46:54;;;;;;;6.00;1.95;;;;;;;;;;5107290;28;20119;-74
2021/08/28 15:49:39;;;;;;;9.43;2.20;;;;;;;;;;5107525;28;20064;-73
2021/08/28 15:52:25;;;;;;;6.65;1.77;;;;;;;;;;5111131;27;20047;-73
2021/08/28 15:55:14;;;;;;;8.35;1.92;;;;;;;;;;5121036;28;20066;-74
2021/08/28 15:57:59;;;;;;;6.00;1.92;;;;;;;;;;5122109;28;20056;-74
2021/08/28 16:00:44;;;;;;;6.70;1.80;;;;;;;;;;5107363;28;20044;-74
2021/08/28 16:03:31;;;;;;;3.28;1.70;;;;;;;;;;5121556;27;20059;-74
2021/08/28 16:06:17;;;;;;;7.10;1.73;;;;;;;;;;5140624;27;20494;-74
2021/08/28 16:09:03;;;;;;;4.00;1.58;;;;;;;;;;5078448;28;20098;-74
2021/08/28 16:11:48;;;;;;;4.35;1.77;;;;;;;;;;5089787;28;20048;-74
2021/08/28 16:14:34;;;;;;;5.50;2.20;;;;;;;;;;5079105;28;20060;-74
2021/08/28 16:17:20;;;;;;;4.15;1.55;;;;;;;;;;5093291;28;20490;-74
2021/08/28 16:20:05;;;;;;;2.55;1.13;;;;;;;;;;5079218;28;20060;-74
2021/08/28 16:22:50;;;;;;;4.35;1.80;;;;;;;;;;5077113;28;20514;-75
2021/08/28 16:25:35;;;;;;;6.57;1.83;;;;;;;;;;5092946;28;20100;-74
2021/08/28 16:28:20;;;;;;;6.68;1.92;;;;;;;;;;5093205;28;20060;-75
2021/08/28 16:31:05;;;;;;;5.03;1.40;;;;;;;;;;5091775;28;20509;-74
2021/08/28 16:33:50;;;;;;;5.28;1.55;;;;;;;;;;5072417;28;20060;-74
2021/08/28 16:36:36;;;;;;;4.60;1.92;;;;;;;;;;5092489;28;20055;-74
2021/08/28 16:39:21;;;;;;;7.03;1.95;;;;;;;;;;5092732;28;20494;-74
2021/08/28 16:42:06;;;;;;;6.15;1.73;;;;;;;;;;5078898;28;20048;-74
2021/08/28 16:44:52;;;;;;;7.57;2.03;;;;;;;;;;5091730;28;20509;-74
2021/08/28 16:47:37;;;;;;;3.35;1.52;;;;;;;;;;5092887;28;20178;-74